sensor_id;sensor_type;location;lat;lon;timestamp;P1;durP1;ratioP1;P2;durP2;ratioP2
57321;SDS011;43159;51.006;18.224;2023-11-19T00:05:26;44.00;;;18.50;;
57321;SDS011;43159;51.006;18.224;2023-11-19T00:15:11;50.00;;;18.80;;
57321;SDS011;43159;51.006;18.224;2023-11-19T00:25:02;44.90;;;19.80;;
57321;SDS011;43159;51.006;18.224;2023-11-19T00:34:47;25.50;;;15.40;;
57321;SDS011;43159;51.006;18.224;2023-11-19T00:44:32;29.90;;;12.70;;
57321;SDS011;43159;51.006;18.224;2023-11-19T00:54:14;52.60;;;20.60;;
57321;SDS011;43159;51.006;18.224;2023-11-19T01:03:56;36.40;;;11.80;;
57321;SDS011;43159;51.006;18.224;2023-11-19T01:13:47;48.40;;;16.10;;
57321;SDS011;43159;51.006;18.224;2023-11-19T01:23:30;43.50;;;15.00;;
57321;SDS011;43159;51.006;18.224;2023-11-19T01:33:12;33.90;;;14.30;;
57321;SDS011;43159;51.006;18.224;2023-11-19T01:42:53;30.60;;;12.80;;
57321;SDS011;43159;51.006;18.224;2023-11-19T01:52:54;34.60;;;14.30;;
57321;SDS011;43159;51.006;18.224;2023-11-19T02:02:38;29.10;;;13.50;;
57321;SDS011;43159;51.006;18.224;2023-11-19T02:12:24;31.60;;;11.30;;
57321;SDS011;43159;51.006;18.224;2023-11-19T02:22:17;27.10;;;12.90;;
57321;SDS011;43159;51.006;18.224;2023-11-19T02:32:01;32.50;;;16.80;;
57321;SDS011;43159;51.006;18.224;2023-11-19T02:41:47;30.90;;;8.90;;
57321;SDS011;43159;51.006;18.224;2023-11-19T02:51:33;26.80;;;12.90;;
57321;SDS011;43159;51.006;18.224;2023-11-19T03:01:23;23.60;;;12.50;;
57321;SDS011;43159;51.006;18.224;2023-11-19T03:11:13;30.10;;;12.30;;
57321;SDS011;43159;51.006;18.224;2023-11-19T03:20:56;31.40;;;14.70;;
57321;SDS011;43159;51.006;18.224;2023-11-19T03:30:40;39.10;;;14.20;;
57321;SDS011;43159;51.006;18.224;2023-11-19T03:40:23;41.10;;;15.40;;
57321;SDS011;43159;51.006;18.224;2023-11-19T03:50:08;27.00;;;11.70;;
57321;SDS011;43159;51.006;18.224;2023-11-19T03:59:52;29.30;;;15.50;;
57321;SDS011;43159;51.006;18.224;2023-11-19T04:09:34;35.30;;;15.30;;
57321;SDS011;43159;51.006;18.224;2023-11-19T04:19:17;36.00;;;14.60;;
57321;SDS011;43159;51.006;18.224;2023-11-19T04:29:11;38.30;;;14.80;;
57321;SDS011;43159;51.006;18.224;2023-11-19T04:38:59;39.30;;;18.00;;
57321;SDS011;43159;51.006;18.224;2023-11-19T04:48:44;32.60;;;14.30;;
57321;SDS011;43159;51.006;18.224;2023-11-19T04:58:28;40.50;;;18.70;;
57321;SDS011;43159;51.006;18.224;2023-11-19T05:08:11;34.40;;;15.30;;
57321;SDS011;43159;51.006;18.224;2023-11-19T05:17:53;35.50;;;14.30;;
57321;SDS011;43159;51.006;18.224;2023-11-19T05:27:37;47.30;;;19.20;;
57321;SDS011;43159;51.006;18.224;2023-11-19T05:37:23;37.00;;;14.80;;
57321;SDS011;43159;51.006;18.224;2023-11-19T05:54:24;29.70;;;11.50;;
57321;SDS011;43159;51.006;18.224;2023-11-19T06:04:10;31.30;;;13.90;;
57321;SDS011;43159;51.006;18.224;2023-11-19T06:13:54;39.00;;;15.80;;
57321;SDS011;43159;51.006;18.224;2023-11-19T06:23:36;34.90;;;15.20;;
57321;SDS011;43159;51.006;18.224;2023-11-19T06:33:18;25.70;;;12.10;;
57321;SDS011;43159;51.006;18.224;2023-11-19T06:43:01;27.90;;;10.30;;
57321;SDS011;43159;51.006;18.224;2023-11-19T06:52:45;37.90;;;15.60;;
57321;SDS011;43159;51.006;18.224;2023-11-19T07:02:30;32.90;;;13.50;;
57321;SDS011;43159;51.006;18.224;2023-11-19T07:12:13;33.80;;;14.20;;
57321;SDS011;43159;51.006;18.224;2023-11-19T07:21:57;30.30;;;13.10;;
57321;SDS011;43159;51.006;18.224;2023-11-19T07:31:42;23.10;;;12.00;;
57321;SDS011;43159;51.006;18.224;2023-11-19T07:41:30;23.90;;;11.60;;
57321;SDS011;43159;51.006;18.224;2023-11-19T07:51:13;30.00;;;14.10;;
57321;SDS011;43159;51.006;18.224;2023-11-19T08:00:57;23.30;;;9.70;;
57321;SDS011;43159;51.006;18.224;2023-11-19T08:10:40;28.70;;;13.40;;
57321;SDS011;43159;51.006;18.224;2023-11-19T08:20:22;24.90;;;12.70;;
57321;SDS011;43159;51.006;18.224;2023-11-19T08:30:06;33.00;;;12.10;;
57321;SDS011;43159;51.006;18.224;2023-11-19T08:39:49;30.40;;;11.30;;
57321;SDS011;43159;51.006;18.224;2023-11-19T08:49:38;21.20;;;10.80;;
57321;SDS011;43159;51.006;18.224;2023-11-19T08:59:24;28.50;;;12.00;;
57321;SDS011;43159;51.006;18.224;2023-11-19T09:09:08;30.70;;;12.10;;
57321;SDS011;43159;51.006;18.224;2023-11-19T09:18:51;24.00;;;9.80;;
57321;SDS011;43159;51.006;18.224;2023-11-19T09:28:37;24.60;;;11.80;;
57321;SDS011;43159;51.006;18.224;2023-11-19T09:38:23;32.30;;;11.90;;
57321;SDS011;43159;51.006;18.224;2023-11-19T09:48:14;28.80;;;10.40;;
57321;SDS011;43159;51.006;18.224;2023-11-19T09:57:58;12.60;;;5.60;;
57321;SDS011;43159;51.006;18.224;2023-11-19T10:07:43;14.20;;;5.40;;
57321;SDS011;43159;51.006;18.224;2023-11-19T10:17:34;17.00;;;8.00;;
57321;SDS011;43159;51.006;18.224;2023-11-19T10:27:18;25.70;;;8.70;;
57321;SDS011;43159;51.006;18.224;2023-11-19T10:37:05;15.60;;;6.90;;
57321;SDS011;43159;51.006;18.224;2023-11-19T10:47:10;23.70;;;6.80;;
57321;SDS011;43159;51.006;18.224;2023-11-19T10:56:54;20.80;;;6.70;;
57321;SDS011;43159;51.006;18.224;2023-11-19T11:06:41;9.90;;;4.00;;
57321;SDS011;43159;51.006;18.224;2023-11-19T11:16:29;11.40;;;4.90;;
57321;SDS011;43159;51.006;18.224;2023-11-19T11:45:07;16.10;;;7.20;;
57321;SDS011;43159;51.006;18.224;2023-11-19T11:55:29;25.00;;;9.30;;
57321;SDS011;43159;51.006;18.224;2023-11-19T12:05:41;23.10;;;8.90;;
57321;SDS011;43159;51.006;18.224;2023-11-19T12:16:07;17.60;;;8.30;;
57321;SDS011;43159;51.006;18.224;2023-11-19T12:25:46;52.00;;;8.50;;
57321;SDS011;43159;51.006;18.224;2023-11-19T12:35:38;15.60;;;8.70;;
57321;SDS011;43159;51.006;18.224;2023-11-19T12:45:21;19.90;;;8.30;;
57321;SDS011;43159;51.006;18.224;2023-11-19T12:55:26;18.30;;;6.10;;
57321;SDS011;43159;51.006;18.224;2023-11-19T13:15:40;28.80;;;12.20;;
57321;SDS011;43159;51.006;18.224;2023-11-19T13:25:25;35.70;;;11.50;;
57321;SDS011;43159;51.006;18.224;2023-11-19T13:35:11;19.60;;;9.40;;
57321;SDS011;43159;51.006;18.224;2023-11-19T13:44:55;15.80;;;7.80;;
57321;SDS011;43159;51.006;18.224;2023-11-19T13:54:38;27.30;;;9.50;;
57321;SDS011;43159;51.006;18.224;2023-11-19T14:04:24;36.90;;;15.00;;
57321;SDS011;43159;51.006;18.224;2023-11-19T14:14:09;13.60;;;4.60;;
57321;SDS011;43159;51.006;18.224;2023-11-19T14:23:52;18.50;;;7.40;;
57321;SDS011;43159;51.006;18.224;2023-11-19T14:33:35;24.30;;;9.70;;
57321;SDS011;43159;51.006;18.224;2023-11-19T14:43:18;19.00;;;9.30;;
57321;SDS011;43159;51.006;18.224;2023-11-19T14:55:26;21.10;;;11.10;;
57321;SDS011;43159;51.006;18.224;2023-11-19T15:05:09;19.10;;;9.90;;
57321;SDS011;43159;51.006;18.224;2023-11-19T15:15:03;20.30;;;7.90;;
57321;SDS011;43159;51.006;18.224;2023-11-19T15:24:46;10.40;;;4.60;;
57321;SDS011;43159;51.006;18.224;2023-11-19T15:34:33;13.70;;;5.60;;
57321;SDS011;43159;51.006;18.224;2023-11-19T15:44:18;24.10;;;9.30;;
57321;SDS011;43159;51.006;18.224;2023-11-19T15:54:00;18.40;;;8.80;;
57321;SDS011;43159;51.006;18.224;2023-11-19T16:03:43;18.10;;;9.30;;
57321;SDS011;43159;51.006;18.224;2023-11-19T16:13:28;21.20;;;10.50;;
57321;SDS011;43159;51.006;18.224;2023-11-19T16:23:11;27.90;;;9.50;;
57321;SDS011;43159;51.006;18.224;2023-11-19T16:32:57;17.00;;;7.20;;
57321;SDS011;43159;51.006;18.224;2023-11-19T16:42:43;16.20;;;7.60;;
57321;SDS011;43159;51.006;18.224;2023-11-19T16:52:29;22.50;;;8.80;;
57321;SDS011;43159;51.006;18.224;2023-11-19T17:02:20;25.10;;;8.50;;
57321;SDS011;43159;51.006;18.224;2023-11-19T17:12:02;21.50;;;11.20;;
57321;SDS011;43159;51.006;18.224;2023-11-19T17:21:46;17.30;;;6.40;;
57321;SDS011;43159;51.006;18.224;2023-11-19T17:31:33;23.90;;;8.60;;
57321;SDS011;43159;51.006;18.224;2023-11-19T17:48:33;21.30;;;6.00;;
57321;SDS011;43159;51.006;18.224;2023-11-19T17:58:17;14.60;;;6.20;;
57321;SDS011;43159;51.006;18.224;2023-11-19T18:08:00;13.50;;;6.50;;
57321;SDS011;43159;51.006;18.224;2023-11-19T18:17:43;17.80;;;8.70;;
57321;SDS011;43159;51.006;18.224;2023-11-19T18:27:31;11.80;;;5.30;;
57321;SDS011;43159;51.006;18.224;2023-11-19T18:37:14;20.60;;;11.00;;
57321;SDS011;43159;51.006;18.224;2023-11-19T18:46:57;13.90;;;6.50;;
57321;SDS011;43159;51.006;18.224;2023-11-19T18:56:43;16.10;;;6.30;;
57321;SDS011;43159;51.006;18.224;2023-11-19T19:06:35;16.60;;;5.60;;
57321;SDS011;43159;51.006;18.224;2023-11-19T19:16:24;15.90;;;6.80;;
57321;SDS011;43159;51.006;18.224;2023-11-19T19:26:08;14.80;;;5.70;;
57321;SDS011;43159;51.006;18.224;2023-11-19T19:35:54;19.20;;;6.80;;
57321;SDS011;43159;51.006;18.224;2023-11-19T19:45:36;15.80;;;6.40;;
57321;SDS011;43159;51.006;18.224;2023-11-19T19:55:20;15.80;;;6.70;;
57321;SDS011;43159;51.006;18.224;2023-11-19T20:12:35;15.70;;;7.10;;
57321;SDS011;43159;51.006;18.224;2023-11-19T20:22:23;15.60;;;6.30;;
57321;SDS011;43159;51.006;18.224;2023-11-19T20:32:11;19.80;;;6.60;;
57321;SDS011;43159;51.006;18.224;2023-11-19T20:41:54;16.10;;;5.00;;
57321;SDS011;43159;51.006;18.224;2023-11-19T20:51:38;14.40;;;6.00;;
57321;SDS011;43159;51.006;18.224;2023-11-19T21:01:23;12.50;;;5.80;;
57321;SDS011;43159;51.006;18.224;2023-11-19T21:11:10;27.40;;;8.80;;
57321;SDS011;43159;51.006;18.224;2023-11-19T21:20:53;23.80;;;7.00;;
57321;SDS011;43159;51.006;18.224;2023-11-19T21:30:39;16.20;;;5.70;;
57321;SDS011;43159;51.006;18.224;2023-11-19T21:40:23;17.80;;;8.50;;
57321;SDS011;43159;51.006;18.224;2023-11-19T21:50:07;15.30;;;7.50;;
57321;SDS011;43159;51.006;18.224;2023-11-19T21:59:56;12.50;;;5.50;;
57321;SDS011;43159;51.006;18.224;2023-11-19T22:09:40;24.80;;;4.10;;
57321;SDS011;43159;51.006;18.224;2023-11-19T22:19:27;19.30;;;7.10;;
57321;SDS011;43159;51.006;18.224;2023-11-19T22:29:09;20.40;;;10.20;;
57321;SDS011;43159;51.006;18.224;2023-11-19T22:38:53;24.80;;;5.70;;
57321;SDS011;43159;51.006;18.224;2023-11-19T22:48:38;17.40;;;5.90;;
57321;SDS011;43159;51.006;18.224;2023-11-19T22:58:21;15.00;;;4.00;;
57321;SDS011;43159;51.006;18.224;2023-11-19T23:08:02;33.40;;;4.60;;
57321;SDS011;43159;51.006;18.224;2023-11-19T23:17:50;10.90;;;4.30;;
57321;SDS011;43159;51.006;18.224;2023-11-19T23:27:33;10.70;;;3.50;;
57321;SDS011;43159;51.006;18.224;2023-11-19T23:37:17;13.50;;;4.60;;
57321;SDS011;43159;51.006;18.224;2023-11-19T23:47:00;13.40;;;5.00;;
57321;SDS011;43159;51.006;18.224;2023-11-19T23:56:50;13.80;;;5.60;;
